sensor_id;sensor_type;location;lat;lon;timestamp;P1;durP1;ratioP1;P2;durP2;ratioP2
53203;SDS011;39086;54.424;18.456;2023-04-01T00:00:28;19.02;;;6.60;;
53203;SDS011;39086;54.424;18.456;2023-04-01T00:01:30;25.15;;;5.85;;
53203;SDS011;39086;54.424;18.456;2023-04-01T00:02:33;16.10;;;5.63;;
53203;SDS011;39086;54.424;18.456;2023-04-01T00:03:38;20.48;;;5.95;;
53203;SDS011;39086;54.424;18.456;2023-04-01T00:04:42;20.55;;;5.95;;
53203;SDS011;39086;54.424;18.456;2023-04-01T00:05:44;23.70;;;6.55;;
53203;SDS011;39086;54.424;18.456;2023-04-01T00:06:47;17.75;;;5.30;;
53203;SDS011;39086;54.424;18.456;2023-04-01T00:07:50;21.98;;;5.65;;
53203;SDS011;39086;54.424;18.456;2023-04-01T00:08:53;29.00;;;5.93;;
53203;SDS011;39086;54.424;18.456;2023-04-01T00:09:56;17.63;;;6.47;;
53203;SDS011;39086;54.424;18.456;2023-04-01T00:10:59;13.50;;;6.15;;
53203;SDS011;39086;54.424;18.456;2023-04-01T00:12:02;18.52;;;5.80;;
53203;SDS011;39086;54.424;18.456;2023-04-01T00:13:06;22.77;;;6.22;;
53203;SDS011;39086;54.424;18.456;2023-04-01T00:14:08;14.73;;;5.72;;
53203;SDS011;39086;54.424;18.456;2023-04-01T00:15:12;18.70;;;5.57;;
53203;SDS011;39086;54.424;18.456;2023-04-01T00:16:14;15.93;;;5.72;;
53203;SDS011;39086;54.424;18.456;2023-04-01T00:17:23;26.02;;;6.03;;
53203;SDS011;39086;54.424;18.456;2023-04-01T00:18:25;16.08;;;6.32;;
53203;SDS011;39086;54.424;18.456;2023-04-01T00:19:30;11.63;;;5.55;;
53203;SDS011;39086;54.424;18.456;2023-04-01T00:20:33;13.70;;;5.28;;
53203;SDS011;39086;54.424;18.456;2023-04-01T00:21:37;16.55;;;5.50;;
53203;SDS011;39086;54.424;18.456;2023-04-01T00:22:39;19.75;;;4.97;;
53203;SDS011;39086;54.424;18.456;2023-04-01T00:23:43;19.83;;;5.30;;
53203;SDS011;39086;54.424;18.456;2023-04-01T00:24:45;19.77;;;4.78;;
53203;SDS011;39086;54.424;18.456;2023-04-01T00:25:48;13.55;;;4.85;;
53203;SDS011;39086;54.424;18.456;2023-04-01T00:26:51;19.13;;;4.82;;
53203;SDS011;39086;54.424;18.456;2023-04-01T00:27:54;15.25;;;3.88;;
53203;SDS011;39086;54.424;18.456;2023-04-01T00:28:56;18.33;;;4.70;;
53203;SDS011;39086;54.424;18.456;2023-04-01T00:30:01;15.18;;;4.38;;
53203;SDS011;39086;54.424;18.456;2023-04-01T00:31:04;15.20;;;3.95;;
53203;SDS011;39086;54.424;18.456;2023-04-01T00:32:08;13.50;;;4.30;;
53203;SDS011;39086;54.424;18.456;2023-04-01T00:33:11;17.63;;;4.38;;
53203;SDS011;39086;54.424;18.456;2023-04-01T00:34:14;13.45;;;4.43;;
53203;SDS011;39086;54.424;18.456;2023-04-01T00:35:18;12.13;;;4.25;;
53203;SDS011;39086;54.424;18.456;2023-04-01T00:36:21;20.52;;;4.63;;
53203;SDS011;39086;54.424;18.456;2023-04-01T00:37:24;10.18;;;4.88;;
53203;SDS011;39086;54.424;18.456;2023-04-01T00:38:28;11.77;;;4.50;;
53203;SDS011;39086;54.424;18.456;2023-04-01T00:39:30;11.48;;;4.07;;
53203;SDS011;39086;54.424;18.456;2023-04-01T00:40:35;17.48;;;5.10;;
53203;SDS011;39086;54.424;18.456;2023-04-01T00:41:38;18.75;;;4.65;;
53203;SDS011;39086;54.424;18.456;2023-04-01T00:42:41;14.40;;;4.60;;
53203;SDS011;39086;54.424;18.456;2023-04-01T00:43:44;17.70;;;4.63;;
53203;SDS011;39086;54.424;18.456;2023-04-01T00:44:49;10.50;;;5.13;;
53203;SDS011;39086;54.424;18.456;2023-04-01T00:45:52;10.02;;;4.57;;
53203;SDS011;39086;54.424;18.456;2023-04-01T00:46:55;11.10;;;4.78;;
53203;SDS011;39086;54.424;18.456;2023-04-01T00:47:58;14.68;;;4.53;;
53203;SDS011;39086;54.424;18.456;2023-04-01T00:49:02;9.35;;;4.80;;
53203;SDS011;39086;54.424;18.456;2023-04-01T00:50:05;8.60;;;4.70;;
53203;SDS011;39086;54.424;18.456;2023-04-01T00:51:11;9.82;;;4.38;;
53203;SDS011;39086;54.424;18.456;2023-04-01T00:52:15;12.52;;;4.78;;
53203;SDS011;39086;54.424;18.456;2023-04-01T00:53:20;6.82;;;3.80;;
53203;SDS011;39086;54.424;18.456;2023-04-01T00:54:24;9.57;;;3.72;;
53203;SDS011;39086;54.424;18.456;2023-04-01T00:55:28;4.85;;;3.53;;
53203;SDS011;39086;54.424;18.456;2023-04-01T00:56:33;3.72;;;2.92;;
53203;SDS011;39086;54.424;18.456;2023-04-01T00:57:38;3.92;;;3.58;;
53203;SDS011;39086;54.424;18.456;2023-04-01T00:58:43;4.50;;;3.33;;
53203;SDS011;39086;54.424;18.456;2023-04-01T00:59:48;3.33;;;3.03;;
53203;SDS011;39086;54.424;18.456;2023-04-01T01:00:51;4.47;;;3.40;;
53203;SDS011;39086;54.424;18.456;2023-04-01T01:01:55;4.25;;;3.55;;
53203;SDS011;39086;54.424;18.456;2023-04-01T01:02:57;5.57;;;3.40;;
53203;SDS011;39086;54.424;18.456;2023-04-01T01:04:00;3.63;;;3.33;;
53203;SDS011;39086;54.424;18.456;2023-04-01T01:05:03;3.78;;;3.38;;
53203;SDS011;39086;54.424;18.456;2023-04-01T01:06:10;4.35;;;3.55;;
53203;SDS011;39086;54.424;18.456;2023-04-01T01:07:16;3.60;;;3.08;;
53203;SDS011;39086;54.424;18.456;2023-04-01T01:08:23;3.63;;;3.28;;
53203;SDS011;39086;54.424;18.456;2023-04-01T01:09:34;3.70;;;3.40;;
53203;SDS011;39086;54.424;18.456;2023-04-01T01:10:41;4.07;;;3.42;;
53203;SDS011;39086;54.424;18.456;2023-04-01T01:11:45;5.55;;;3.58;;
53203;SDS011;39086;54.424;18.456;2023-04-01T01:12:52;4.68;;;3.30;;
53203;SDS011;39086;54.424;18.456;2023-04-01T01:13:56;4.03;;;3.30;;
53203;SDS011;39086;54.424;18.456;2023-04-01T01:15:04;5.15;;;2.95;;
53203;SDS011;39086;54.424;18.456;2023-04-01T01:16:09;4.25;;;3.10;;
53203;SDS011;39086;54.424;18.456;2023-04-01T01:17:19;2.58;;;2.38;;
53203;SDS011;39086;54.424;18.456;2023-04-01T01:18:27;2.70;;;2.30;;
53203;SDS011;39086;54.424;18.456;2023-04-01T01:19:41;2.50;;;2.30;;
53203;SDS011;39086;54.424;18.456;2023-04-01T01:22:27;2.85;;;2.47;;
53203;SDS011;39086;54.424;18.456;2023-04-01T01:23:42;2.70;;;2.50;;
53203;SDS011;39086;54.424;18.456;2023-04-01T01:24:51;2.70;;;2.40;;
53203;SDS011;39086;54.424;18.456;2023-04-01T01:25:58;2.60;;;2.40;;
53203;SDS011;39086;54.424;18.456;2023-04-01T01:27:06;4.13;;;2.60;;
53203;SDS011;39086;54.424;18.456;2023-04-01T01:28:15;3.58;;;3.25;;
53203;SDS011;39086;54.424;18.456;2023-04-01T01:29:41;3.00;;;2.50;;
53203;SDS011;39086;54.424;18.456;2023-04-01T01:30:47;8.10;;;2.95;;
53203;SDS011;39086;54.424;18.456;2023-04-01T01:31:56;3.35;;;3.03;;
53203;SDS011;39086;54.424;18.456;2023-04-01T01:34:19;4.88;;;3.25;;
53203;SDS011;39086;54.424;18.456;2023-04-01T01:35:26;3.65;;;3.28;;
53203;SDS011;39086;54.424;18.456;2023-04-01T01:36:32;4.65;;;3.55;;
53203;SDS011;39086;54.424;18.456;2023-04-01T01:37:36;4.25;;;3.40;;
53203;SDS011;39086;54.424;18.456;2023-04-01T01:38:40;4.45;;;3.65;;
53203;SDS011;39086;54.424;18.456;2023-04-01T01:39:43;4.30;;;3.67;;
53203;SDS011;39086;54.424;18.456;2023-04-01T01:40:49;7.47;;;3.20;;
53203;SDS011;39086;54.424;18.456;2023-04-01T01:41:55;3.65;;;3.17;;
53203;SDS011;39086;54.424;18.456;2023-04-01T01:43:00;4.18;;;3.72;;
53203;SDS011;39086;54.424;18.456;2023-04-01T01:44:06;3.25;;;2.92;;
53203;SDS011;39086;54.424;18.456;2023-04-01T01:45:10;7.30;;;3.40;;
53203;SDS011;39086;54.424;18.456;2023-04-01T01:46:15;4.13;;;3.63;;
53203;SDS011;39086;54.424;18.456;2023-04-01T01:47:19;6.78;;;3.35;;
53203;SDS011;39086;54.424;18.456;2023-04-01T01:48:23;6.30;;;4.05;;
53203;SDS011;39086;54.424;18.456;2023-04-01T01:49:27;3.90;;;3.50;;
53203;SDS011;39086;54.424;18.456;2023-04-01T01:50:33;4.25;;;3.55;;
53203;SDS011;39086;54.424;18.456;2023-04-01T01:51:36;6.38;;;3.67;;
53203;SDS011;39086;54.424;18.456;2023-04-01T01:52:40;5.68;;;4.35;;
53203;SDS011;39086;54.424;18.456;2023-04-01T01:53:43;6.63;;;3.90;;
53203;SDS011;39086;54.424;18.456;2023-04-01T01:54:47;4.85;;;3.83;;
53203;SDS011;39086;54.424;18.456;2023-04-01T01:55:50;8.45;;;3.95;;
53203;SDS011;39086;54.424;18.456;2023-04-01T01:56:55;6.50;;;3.45;;
53203;SDS011;39086;54.424;18.456;2023-04-01T01:58:05;7.60;;;3.97;;
53203;SDS011;39086;54.424;18.456;2023-04-01T01:59:09;3.83;;;3.42;;
53203;SDS011;39086;54.424;18.456;2023-04-01T02:00:14;5.53;;;3.78;;
53203;SDS011;39086;54.424;18.456;2023-04-01T02:01:18;5.22;;;3.28;;
53203;SDS011;39086;54.424;18.456;2023-04-01T02:02:22;7.90;;;4.00;;
53203;SDS011;39086;54.424;18.456;2023-04-01T02:03:26;10.05;;;3.80;;
53203;SDS011;39086;54.424;18.456;2023-04-01T02:04:30;7.13;;;4.10;;
53203;SDS011;39086;54.424;18.456;2023-04-01T02:05:33;4.85;;;3.92;;
53203;SDS011;39086;54.424;18.456;2023-04-01T02:06:38;5.22;;;4.03;;
53203;SDS011;39086;54.424;18.456;2023-04-01T02:07:44;4.88;;;3.90;;
53203;SDS011;39086;54.424;18.456;2023-04-01T02:08:49;3.75;;;3.45;;
53203;SDS011;39086;54.424;18.456;2023-04-01T02:09:52;5.47;;;3.80;;
53203;SDS011;39086;54.424;18.456;2023-04-01T02:10:57;6.50;;;3.75;;
53203;SDS011;39086;54.424;18.456;2023-04-01T02:12:02;5.22;;;3.80;;
53203;SDS011;39086;54.424;18.456;2023-04-01T02:13:08;7.03;;;4.40;;
53203;SDS011;39086;54.424;18.456;2023-04-01T02:14:13;11.05;;;4.10;;
53203;SDS011;39086;54.424;18.456;2023-04-01T02:15:17;7.60;;;3.90;;
53203;SDS011;39086;54.424;18.456;2023-04-01T02:16:21;4.68;;;3.47;;
53203;SDS011;39086;54.424;18.456;2023-04-01T02:17:27;5.03;;;3.33;;
53203;SDS011;39086;54.424;18.456;2023-04-01T02:18:30;8.60;;;3.45;;
53203;SDS011;39086;54.424;18.456;2023-04-01T02:19:37;5.70;;;2.30;;
53203;SDS011;39086;54.424;18.456;2023-04-01T02:20:41;5.68;;;3.50;;
53203;SDS011;39086;54.424;18.456;2023-04-01T02:21:45;3.42;;;3.10;;
53203;SDS011;39086;54.424;18.456;2023-04-01T02:22:49;6.57;;;3.00;;
53203;SDS011;39086;54.424;18.456;2023-04-01T02:23:52;3.35;;;3.05;;
53203;SDS011;39086;54.424;18.456;2023-04-01T02:24:57;7.07;;;3.20;;
53203;SDS011;39086;54.424;18.456;2023-04-01T02:26:01;3.90;;;3.15;;
53203;SDS011;39086;54.424;18.456;2023-04-01T02:27:04;6.55;;;2.90;;
53203;SDS011;39086;54.424;18.456;2023-04-01T02:28:08;2.97;;;2.78;;
53203;SDS011;39086;54.424;18.456;2023-04-01T02:29:11;4.03;;;2.75;;
53203;SDS011;39086;54.424;18.456;2023-04-01T02:30:15;3.60;;;3.30;;
53203;SDS011;39086;54.424;18.456;2023-04-01T02:31:17;6.68;;;3.10;;
53203;SDS011;39086;54.424;18.456;2023-04-01T02:32:21;3.95;;;2.92;;
53203;SDS011;39086;54.424;18.456;2023-04-01T02:33:24;3.92;;;3.47;;
53203;SDS011;39086;54.424;18.456;2023-04-01T02:34:27;3.78;;;3.45;;
53203;SDS011;39086;54.424;18.456;2023-04-01T02:35:29;4.25;;;2.97;;
53203;SDS011;39086;54.424;18.456;2023-04-01T02:36:36;3.45;;;2.85;;
53203;SDS011;39086;54.424;18.456;2023-04-01T02:37:38;3.95;;;3.15;;
53203;SDS011;39086;54.424;18.456;2023-04-01T02:38:44;3.20;;;2.90;;
53203;SDS011;39086;54.424;18.456;2023-04-01T02:39:46;7.22;;;3.15;;
53203;SDS011;39086;54.424;18.456;2023-04-01T02:40:51;3.38;;;2.78;;
53203;SDS011;39086;54.424;18.456;2023-04-01T02:41:53;4.40;;;3.28;;
53203;SDS011;39086;54.424;18.456;2023-04-01T02:42:57;5.13;;;3.35;;
53203;SDS011;39086;54.424;18.456;2023-04-01T02:43:59;4.38;;;2.95;;
53203;SDS011;39086;54.424;18.456;2023-04-01T02:45:03;6.38;;;3.65;;
53203;SDS011;39086;54.424;18.456;2023-04-01T02:46:05;4.45;;;2.83;;
53203;SDS011;39086;54.424;18.456;2023-04-01T02:47:09;3.13;;;2.83;;
53203;SDS011;39086;54.424;18.456;2023-04-01T02:48:11;3.35;;;3.03;;
53203;SDS011;39086;54.424;18.456;2023-04-01T02:49:15;5.45;;;3.30;;
53203;SDS011;39086;54.424;18.456;2023-04-01T02:50:17;4.82;;;3.30;;
53203;SDS011;39086;54.424;18.456;2023-04-01T02:51:21;4.60;;;2.60;;
53203;SDS011;39086;54.424;18.456;2023-04-01T02:52:25;6.13;;;3.50;;
53203;SDS011;39086;54.424;18.456;2023-04-01T02:53:28;4.10;;;3.40;;
53203;SDS011;39086;54.424;18.456;2023-04-01T02:54:30;3.88;;;3.33;;
53203;SDS011;39086;54.424;18.456;2023-04-01T02:55:34;7.63;;;3.35;;
53203;SDS011;39086;54.424;18.456;2023-04-01T02:56:36;5.28;;;3.92;;
53203;SDS011;39086;54.424;18.456;2023-04-01T02:57:39;3.83;;;3.20;;
53203;SDS011;39086;54.424;18.456;2023-04-01T02:58:41;4.90;;;2.97;;
53203;SDS011;39086;54.424;18.456;2023-04-01T02:59:45;6.45;;;2.75;;
53203;SDS011;39086;54.424;18.456;2023-04-01T03:00:47;1.67;;;1.58;;
53203;SDS011;39086;54.424;18.456;2023-04-01T03:01:50;3.13;;;2.83;;
53203;SDS011;39086;54.424;18.456;2023-04-01T03:02:53;4.65;;;3.03;;
53203;SDS011;39086;54.424;18.456;2023-04-01T03:03:57;6.43;;;3.40;;
53203;SDS011;39086;54.424;18.456;2023-04-01T03:05:00;3.67;;;2.88;;
53203;SDS011;39086;54.424;18.456;2023-04-01T03:06:04;3.38;;;2.30;;
53203;SDS011;39086;54.424;18.456;2023-04-01T03:07:07;10.15;;;2.60;;
53203;SDS011;39086;54.424;18.456;2023-04-01T03:08:12;8.07;;;2.90;;
53203;SDS011;39086;54.424;18.456;2023-04-01T03:09:14;3.63;;;3.00;;
53203;SDS011;39086;54.424;18.456;2023-04-01T03:10:18;4.05;;;3.10;;
53203;SDS011;39086;54.424;18.456;2023-04-01T03:11:20;5.30;;;1.85;;
53203;SDS011;39086;54.424;18.456;2023-04-01T03:12:24;7.68;;;3.05;;
53203;SDS011;39086;54.424;18.456;2023-04-01T03:13:26;4.18;;;2.38;;
53203;SDS011;39086;54.424;18.456;2023-04-01T03:14:29;5.95;;;2.47;;
53203;SDS011;39086;54.424;18.456;2023-04-01T03:15:31;9.25;;;2.95;;
53203;SDS011;39086;54.424;18.456;2023-04-01T03:16:35;7.82;;;3.00;;
53203;SDS011;39086;54.424;18.456;2023-04-01T03:17:37;7.18;;;2.80;;
53203;SDS011;39086;54.424;18.456;2023-04-01T03:18:41;11.70;;;2.92;;
53203;SDS011;39086;54.424;18.456;2023-04-01T03:19:43;12.52;;;3.00;;
53203;SDS011;39086;54.424;18.456;2023-04-01T03:20:46;14.10;;;2.83;;
53203;SDS011;39086;54.424;18.456;2023-04-01T03:21:49;16.27;;;2.83;;
53203;SDS011;39086;54.424;18.456;2023-04-01T03:22:52;21.50;;;2.80;;
53203;SDS011;39086;54.424;18.456;2023-04-01T03:23:56;13.52;;;3.05;;
53203;SDS011;39086;54.424;18.456;2023-04-01T03:24:59;14.63;;;2.72;;
53203;SDS011;39086;54.424;18.456;2023-04-01T03:26:02;10.13;;;2.50;;
53203;SDS011;39086;54.424;18.456;2023-04-01T03:27:05;6.30;;;2.70;;
53203;SDS011;39086;54.424;18.456;2023-04-01T03:28:07;10.88;;;3.25;;
53203;SDS011;39086;54.424;18.456;2023-04-01T03:29:11;4.05;;;2.90;;
53203;SDS011;39086;54.424;18.456;2023-04-01T03:30:13;4.28;;;3.10;;
53203;SDS011;39086;54.424;18.456;2023-04-01T03:31:17;7.85;;;2.83;;
53203;SDS011;39086;54.424;18.456;2023-04-01T03:32:21;3.08;;;2.53;;
53203;SDS011;39086;54.424;18.456;2023-04-01T03:33:25;8.13;;;2.83;;
53203;SDS011;39086;54.424;18.456;2023-04-01T03:34:27;11.65;;;3.08;;
53203;SDS011;39086;54.424;18.456;2023-04-01T03:35:30;9.20;;;3.38;;
53203;SDS011;39086;54.424;18.456;2023-04-01T03:36:33;8.45;;;2.88;;
53203;SDS011;39086;54.424;18.456;2023-04-01T03:37:37;11.65;;;3.63;;
53203;SDS011;39086;54.424;18.456;2023-04-01T03:38:39;6.85;;;3.60;;
53203;SDS011;39086;54.424;18.456;2023-04-01T03:39:44;5.80;;;2.78;;
53203;SDS011;39086;54.424;18.456;2023-04-01T03:40:47;6.85;;;3.10;;
53203;SDS011;39086;54.424;18.456;2023-04-01T03:41:50;9.10;;;3.45;;
53203;SDS011;39086;54.424;18.456;2023-04-01T03:42:53;8.32;;;3.25;;
53203;SDS011;39086;54.424;18.456;2023-04-01T03:43:57;5.78;;;3.35;;
53203;SDS011;39086;54.424;18.456;2023-04-01T03:44:59;4.45;;;3.60;;
53203;SDS011;39086;54.424;18.456;2023-04-01T03:46:03;4.80;;;3.22;;
53203;SDS011;39086;54.424;18.456;2023-04-01T03:47:05;7.22;;;3.50;;
53203;SDS011;39086;54.424;18.456;2023-04-01T03:48:10;5.72;;;2.75;;
53203;SDS011;39086;54.424;18.456;2023-04-01T03:49:12;6.55;;;3.33;;
53203;SDS011;39086;54.424;18.456;2023-04-01T03:50:16;8.40;;;3.20;;
53203;SDS011;39086;54.424;18.456;2023-04-01T03:51:18;16.23;;;3.83;;
53203;SDS011;39086;54.424;18.456;2023-04-01T03:52:21;6.35;;;3.78;;
53203;SDS011;39086;54.424;18.456;2023-04-01T03:53:24;10.05;;;3.50;;
53203;SDS011;39086;54.424;18.456;2023-04-01T03:54:28;6.35;;;3.65;;
53203;SDS011;39086;54.424;18.456;2023-04-01T03:55:32;4.38;;;3.30;;
53203;SDS011;39086;54.424;18.456;2023-04-01T03:56:35;10.65;;;3.13;;
53203;SDS011;39086;54.424;18.456;2023-04-01T03:57:37;15.30;;;3.33;;
53203;SDS011;39086;54.424;18.456;2023-04-01T03:58:41;5.63;;;2.63;;
53203;SDS011;39086;54.424;18.456;2023-04-01T03:59:43;11.30;;;4.10;;
53203;SDS011;39086;54.424;18.456;2023-04-01T04:00:46;9.13;;;3.40;;
53203;SDS011;39086;54.424;18.456;2023-04-01T04:01:49;11.25;;;4.13;;
53203;SDS011;39086;54.424;18.456;2023-04-01T04:02:52;7.93;;;3.72;;
53203;SDS011;39086;54.424;18.456;2023-04-01T04:03:55;9.18;;;4.18;;
53203;SDS011;39086;54.424;18.456;2023-04-01T04:04:58;5.22;;;2.90;;
53203;SDS011;39086;54.424;18.456;2023-04-01T04:06:01;4.75;;;3.50;;
53203;SDS011;39086;54.424;18.456;2023-04-01T04:07:04;11.18;;;3.40;;
53203;SDS011;39086;54.424;18.456;2023-04-01T04:08:06;6.97;;;3.70;;
53203;SDS011;39086;54.424;18.456;2023-04-01T04:09:10;11.48;;;3.67;;
53203;SDS011;39086;54.424;18.456;2023-04-01T04:10:12;4.60;;;3.20;;
53203;SDS011;39086;54.424;18.456;2023-04-01T04:11:18;6.10;;;3.83;;
53203;SDS011;39086;54.424;18.456;2023-04-01T04:12:20;4.43;;;3.60;;
53203;SDS011;39086;54.424;18.456;2023-04-01T04:13:23;3.53;;;2.92;;
53203;SDS011;39086;54.424;18.456;2023-04-01T04:14:26;4.32;;;2.90;;
53203;SDS011;39086;54.424;18.456;2023-04-01T04:15:29;4.78;;;3.40;;
53203;SDS011;39086;54.424;18.456;2023-04-01T04:16:32;7.82;;;3.10;;
53203;SDS011;39086;54.424;18.456;2023-04-01T04:17:38;4.43;;;2.70;;
53203;SDS011;39086;54.424;18.456;2023-04-01T04:18:40;5.78;;;2.90;;
53203;SDS011;39086;54.424;18.456;2023-04-01T04:19:44;4.85;;;3.03;;
53203;SDS011;39086;54.424;18.456;2023-04-01T04:20:46;4.38;;;3.22;;
53203;SDS011;39086;54.424;18.456;2023-04-01T04:21:52;10.05;;;3.33;;
53203;SDS011;39086;54.424;18.456;2023-04-01T04:22:55;8.00;;;3.10;;
53203;SDS011;39086;54.424;18.456;2023-04-01T04:23:58;8.23;;;2.53;;
53203;SDS011;39086;54.424;18.456;2023-04-01T04:25:01;6.22;;;3.05;;
53203;SDS011;39086;54.424;18.456;2023-04-01T04:26:05;5.22;;;2.55;;
53203;SDS011;39086;54.424;18.456;2023-04-01T04:27:10;5.57;;;3.08;;
53203;SDS011;39086;54.424;18.456;2023-04-01T04:28:12;9.75;;;3.00;;
53203;SDS011;39086;54.424;18.456;2023-04-01T04:29:16;9.25;;;3.10;;
53203;SDS011;39086;54.424;18.456;2023-04-01T04:30:18;4.25;;;3.53;;
53203;SDS011;39086;54.424;18.456;2023-04-01T04:31:22;7.45;;;3.30;;
53203;SDS011;39086;54.424;18.456;2023-04-01T04:32:25;5.38;;;2.65;;
53203;SDS011;39086;54.424;18.456;2023-04-01T04:33:30;5.78;;;3.28;;
53203;SDS011;39086;54.424;18.456;2023-04-01T04:34:32;7.85;;;2.92;;
53203;SDS011;39086;54.424;18.456;2023-04-01T04:35:36;4.03;;;3.08;;
53203;SDS011;39086;54.424;18.456;2023-04-01T04:36:38;10.07;;;3.08;;
53203;SDS011;39086;54.424;18.456;2023-04-01T04:37:41;9.48;;;3.33;;
53203;SDS011;39086;54.424;18.456;2023-04-01T04:38:44;10.93;;;3.22;;
53203;SDS011;39086;54.424;18.456;2023-04-01T04:39:47;13.30;;;3.38;;
53203;SDS011;39086;54.424;18.456;2023-04-01T04:40:49;11.93;;;2.80;;
53203;SDS011;39086;54.424;18.456;2023-04-01T04:41:53;7.53;;;2.92;;
53203;SDS011;39086;54.424;18.456;2023-04-01T04:42:56;12.90;;;3.03;;
53203;SDS011;39086;54.424;18.456;2023-04-01T04:44:00;14.80;;;3.00;;
53203;SDS011;39086;54.424;18.456;2023-04-01T04:45:02;10.43;;;3.08;;
53203;SDS011;39086;54.424;18.456;2023-04-01T04:46:06;10.13;;;2.88;;
53203;SDS011;39086;54.424;18.456;2023-04-01T04:47:08;12.80;;;3.13;;
53203;SDS011;39086;54.424;18.456;2023-04-01T04:48:13;10.27;;;3.55;;
53203;SDS011;39086;54.424;18.456;2023-04-01T04:49:19;10.57;;;3.00;;
53203;SDS011;39086;54.424;18.456;2023-04-01T04:50:23;11.40;;;3.33;;
53203;SDS011;39086;54.424;18.456;2023-04-01T04:51:26;12.45;;;2.20;;
53203;SDS011;39086;54.424;18.456;2023-04-01T04:52:29;12.50;;;3.72;;
53203;SDS011;39086;54.424;18.456;2023-04-01T04:53:31;4.00;;;2.50;;
53203;SDS011;39086;54.424;18.456;2023-04-01T04:54:35;12.45;;;2.67;;
53203;SDS011;39086;54.424;18.456;2023-04-01T04:55:37;5.97;;;2.97;;
53203;SDS011;39086;54.424;18.456;2023-04-01T04:56:40;9.73;;;3.35;;
53203;SDS011;39086;54.424;18.456;2023-04-01T04:57:43;16.30;;;3.20;;
53203;SDS011;39086;54.424;18.456;2023-04-01T04:58:48;11.02;;;3.55;;
53203;SDS011;39086;54.424;18.456;2023-04-01T04:59:50;12.50;;;3.38;;
53203;SDS011;39086;54.424;18.456;2023-04-01T05:00:53;19.05;;;3.05;;
53203;SDS011;39086;54.424;18.456;2023-04-01T05:01:56;9.75;;;3.88;;
53203;SDS011;39086;54.424;18.456;2023-04-01T05:02:59;27.15;;;3.55;;
53203;SDS011;39086;54.424;18.456;2023-04-01T05:04:02;10.70;;;2.35;;
53203;SDS011;39086;54.424;18.456;2023-04-01T05:05:05;11.00;;;2.55;;
53203;SDS011;39086;54.424;18.456;2023-04-01T05:06:08;10.73;;;3.22;;
53203;SDS011;39086;54.424;18.456;2023-04-01T05:07:12;18.02;;;3.22;;
53203;SDS011;39086;54.424;18.456;2023-04-01T05:08:14;13.32;;;2.28;;
53203;SDS011;39086;54.424;18.456;2023-04-01T05:09:17;20.33;;;2.55;;
53203;SDS011;39086;54.424;18.456;2023-04-01T05:10:20;18.00;;;2.92;;
53203;SDS011;39086;54.424;18.456;2023-04-01T05:11:23;11.90;;;2.58;;
53203;SDS011;39086;54.424;18.456;2023-04-01T05:12:27;11.25;;;3.15;;
53203;SDS011;39086;54.424;18.456;2023-04-01T05:13:29;27.55;;;2.70;;
53203;SDS011;39086;54.424;18.456;2023-04-01T05:14:34;17.27;;;2.90;;
53203;SDS011;39086;54.424;18.456;2023-04-01T05:15:36;17.42;;;3.05;;
53203;SDS011;39086;54.424;18.456;2023-04-01T05:16:40;25.27;;;3.00;;
53203;SDS011;39086;54.424;18.456;2023-04-01T05:17:42;15.45;;;3.50;;
53203;SDS011;39086;54.424;18.456;2023-04-01T05:18:45;14.15;;;2.88;;
53203;SDS011;39086;54.424;18.456;2023-04-01T05:19:48;18.25;;;2.75;;
53203;SDS011;39086;54.424;18.456;2023-04-01T05:20:52;18.52;;;2.55;;
53203;SDS011;39086;54.424;18.456;2023-04-01T05:21:54;15.65;;;2.60;;
53203;SDS011;39086;54.424;18.456;2023-04-01T05:22:58;21.70;;;2.88;;
53203;SDS011;39086;54.424;18.456;2023-04-01T05:24:01;26.27;;;3.30;;
53203;SDS011;39086;54.424;18.456;2023-04-01T05:25:04;14.75;;;3.17;;
53203;SDS011;39086;54.424;18.456;2023-04-01T05:26:07;11.02;;;3.00;;
53203;SDS011;39086;54.424;18.456;2023-04-01T05:27:11;12.57;;;2.75;;
53203;SDS011;39086;54.424;18.456;2023-04-01T05:28:13;20.05;;;2.58;;
53203;SDS011;39086;54.424;18.456;2023-04-01T05:29:17;36.67;;;3.53;;
53203;SDS011;39086;54.424;18.456;2023-04-01T05:30:21;15.20;;;3.47;;
53203;SDS011;39086;54.424;18.456;2023-04-01T05:31:24;14.80;;;3.42;;
53203;SDS011;39086;54.424;18.456;2023-04-01T05:32:27;25.95;;;3.38;;
53203;SDS011;39086;54.424;18.456;2023-04-01T05:33:30;34.50;;;3.60;;
53203;SDS011;39086;54.424;18.456;2023-04-01T05:34:32;29.35;;;3.33;;
53203;SDS011;39086;54.424;18.456;2023-04-01T05:35:36;41.00;;;2.92;;
53203;SDS011;39086;54.424;18.456;2023-04-01T05:36:38;19.77;;;3.22;;
53203;SDS011;39086;54.424;18.456;2023-04-01T05:37:42;23.00;;;2.78;;
53203;SDS011;39086;54.424;18.456;2023-04-01T05:38:45;32.30;;;2.90;;
53203;SDS011;39086;54.424;18.456;2023-04-01T05:39:48;43.75;;;3.13;;
53203;SDS011;39086;54.424;18.456;2023-04-01T05:40:51;26.10;;;3.50;;
53203;SDS011;39086;54.424;18.456;2023-04-01T05:41:54;25.60;;;3.20;;
53203;SDS011;39086;54.424;18.456;2023-04-01T05:42:56;30.98;;;3.10;;
53203;SDS011;39086;54.424;18.456;2023-04-01T05:44:00;22.77;;;2.95;;
53203;SDS011;39086;54.424;18.456;2023-04-01T05:45:02;23.20;;;3.05;;
53203;SDS011;39086;54.424;18.456;2023-04-01T05:46:07;28.73;;;3.67;;
53203;SDS011;39086;54.424;18.456;2023-04-01T05:47:09;21.75;;;3.28;;
53203;SDS011;39086;54.424;18.456;2023-04-01T05:48:12;30.08;;;2.75;;
53203;SDS011;39086;54.424;18.456;2023-04-01T05:49:16;31.50;;;3.63;;
53203;SDS011;39086;54.424;18.456;2023-04-01T05:50:20;30.17;;;2.70;;
53203;SDS011;39086;54.424;18.456;2023-04-01T05:51:22;33.53;;;2.75;;
53203;SDS011;39086;54.424;18.456;2023-04-01T05:52:25;22.50;;;2.40;;
53203;SDS011;39086;54.424;18.456;2023-04-01T05:53:27;26.85;;;2.58;;
53203;SDS011;39086;54.424;18.456;2023-04-01T05:54:31;16.27;;;2.67;;
53203;SDS011;39086;54.424;18.456;2023-04-01T05:55:34;27.63;;;2.60;;
53203;SDS011;39086;54.424;18.456;2023-04-01T05:56:37;31.02;;;2.83;;
53203;SDS011;39086;54.424;18.456;2023-04-01T05:57:40;29.33;;;2.50;;
53203;SDS011;39086;54.424;18.456;2023-04-01T05:58:43;34.42;;;3.08;;
53203;SDS011;39086;54.424;18.456;2023-04-01T05:59:49;34.25;;;2.53;;
53203;SDS011;39086;54.424;18.456;2023-04-01T06:00:52;31.25;;;2.72;;
53203;SDS011;39086;54.424;18.456;2023-04-01T06:02:14;20.05;;;2.58;;
53203;SDS011;39086;54.424;18.456;2023-04-01T06:03:19;33.05;;;2.63;;
53203;SDS011;39086;54.424;18.456;2023-04-01T06:04:22;28.02;;;2.80;;
53203;SDS011;39086;54.424;18.456;2023-04-01T06:05:27;25.15;;;2.97;;
53203;SDS011;39086;54.424;18.456;2023-04-01T06:06:30;18.45;;;2.58;;
53203;SDS011;39086;54.424;18.456;2023-04-01T06:07:33;18.17;;;2.72;;
53203;SDS011;39086;54.424;18.456;2023-04-01T06:08:36;19.63;;;2.67;;
53203;SDS011;39086;54.424;18.456;2023-04-01T06:09:39;12.20;;;2.90;;
53203;SDS011;39086;54.424;18.456;2023-04-01T06:10:45;8.65;;;2.75;;
53203;SDS011;39086;54.424;18.456;2023-04-01T06:11:55;15.38;;;2.67;;
53203;SDS011;39086;54.424;18.456;2023-04-01T06:13:03;8.13;;;2.35;;
53203;SDS011;39086;54.424;18.456;2023-04-01T06:14:11;6.20;;;2.53;;
53203;SDS011;39086;54.424;18.456;2023-04-01T06:15:30;7.97;;;2.92;;
53203;SDS011;39086;54.424;18.456;2023-04-01T06:16:39;3.90;;;2.30;;
53203;SDS011;39086;54.424;18.456;2023-04-01T06:17:50;4.80;;;2.47;;
53203;SDS011;39086;54.424;18.456;2023-04-01T06:19:07;2.22;;;2.03;;
53203;SDS011;39086;54.424;18.456;2023-04-01T06:20:15;1.48;;;1.05;;